Time,TemperatureF,DewpointF,PressureIn,WindDirection,WindDirectionDegrees,WindSpeedMPH,WindSpeedGustMPH,Humidity,HourlyPrecipIn,Conditions,Clouds,dailyrainin,SoftwareType,DateUTC
2013-03-10 08:21:00,27.0,26.0,30.20,SW,220,0.0,0.0,95,0.00,,,0.00,,2013-03-10 12:21:00,
2013-03-10 08:32:00,28.0,27.0,30.19,SW,220,0.0,0.0,94,0.00,,,0.00,,2013-03-10 12:32:00,
2013-03-10 08:42:00,28.0,27.0,30.19,SW,220,0.0,0.0,94,0.00,,,0.00,,2013-03-10 12:42:00,
2013-03-10 08:51:00,29.0,27.0,30.19,NE,40,0.0,0.0,92,0.00,,,0.00,,2013-03-10 12:51:00,
2013-03-10 09:01:00,29.0,27.0,30.19,NE,40,0.0,0.0,92,0.00,,,0.00,,2013-03-10 13:01:00,
2013-03-10 09:11:00,29.0,27.0,30.19,NE,40,0.0,0.0,92,0.00,,,0.00,,2013-03-10 13:11:00,
2013-03-10 09:21:00,31.0,28.0,30.19,NE,40,0.0,0.0,90,0.00,,,0.00,,2013-03-10 13:21:00,
2013-03-10 09:31:00,33.0,30.0,30.19,NE,40,0.0,0.0,87,0.00,,,0.00,,2013-03-10 13:31:00,
2013-03-10 09:42:00,33.0,30.0,30.19,NE,40,0.0,0.0,87,0.00,,,0.00,,2013-03-10 13:42:00,
2013-03-10 09:52:00,34.0,30.0,30.18,NE,40,0.0,0.0,84,0.00,,,0.00,,2013-03-10 13:52:00,
2013-03-10 10:02:00,34.0,30.0,30.18,NE,40,0.0,0.0,84,0.00,,,0.00,,2013-03-10 14:02:00,
2013-03-10 10:11:00,34.0,30.0,30.18,NE,40,0.0,0.0,84,0.00,,,0.00,,2013-03-10 14:11:00,
2013-03-10 10:21:00,36.0,31.0,30.17,ENE,64,3.0,3.0,81,0.00,,,0.00,,2013-03-10 14:21:00,
2013-03-10 10:32:00,38.0,31.0,30.17,NNE,21,4.0,4.0,75,0.00,,,0.00,,2013-03-10 14:32:00,
2013-03-10 10:42:00,38.0,31.0,30.17,NNE,21,4.0,4.0,75,0.00,,,0.00,,2013-03-10 14:42:00,
2013-03-10 10:51:00,39.0,32.0,30.17,North,1,0.0,0.0,75,0.00,,,0.00,,2013-03-10 14:51:00,
2013-03-10 11:01:00,39.0,32.0,30.17,North,1,0.0,0.0,75,0.00,,,0.00,,2013-03-10 15:01:00,
2013-03-10 11:11:00,39.0,32.0,30.17,North,1,0.0,0.0,75,0.00,,,0.00,,2013-03-10 15:11:00,
2013-03-10 11:21:00,39.0,32.0,30.17,North,1,0.0,0.0,75,0.00,,,0.00,,2013-03-10 15:21:00,
2013-03-10 11:32:00,43.0,33.0,30.15,North,354,0.0,1.0,67,0.00,,,0.00,,2013-03-10 15:32:00,
2013-03-10 11:42:00,43.0,33.0,30.15,North,354,0.0,1.0,67,0.00,,,0.00,,2013-03-10 15:42:00,
2013-03-10 11:52:00,43.0,33.0,30.15,North,354,0.0,1.0,67,0.00,,,0.00,,2013-03-10 15:52:00,
2013-03-10 12:02:00,43.0,33.0,30.15,North,354,0.0,1.0,67,0.00,,,0.00,,2013-03-10 16:02:00,
2013-03-10 12:12:00,43.0,33.0,30.15,North,354,0.0,1.0,67,0.00,,,0.00,,2013-03-10 16:12:00,